createdAt,value
2017-11-30T00:01:33.795Z,71.00
2017-11-30T00:04:01.463Z,70.90
2017-11-30T00:06:29.838Z,70.90
2017-11-30T00:08:57.473Z,70.90
2017-11-30T00:11:25.062Z,71.20
2017-11-30T00:13:53.442Z,71.10
2017-11-30T00:16:21.073Z,71.00
2017-11-30T00:18:48.678Z,71.10
2017-11-30T00:21:17.065Z,71.00
2017-11-30T00:23:44.667Z,70.80
2017-11-30T00:26:12.305Z,70.90
2017-11-30T00:28:39.914Z,71.00
2017-11-30T00:31:07.549Z,70.60
2017-11-30T00:33:35.178Z,70.70
2017-11-30T00:36:02.831Z,70.60
2017-11-30T00:38:30.437Z,70.70
2017-11-30T00:40:58.033Z,71.20
2017-11-30T00:43:31.997Z,71.00
2017-11-30T00:45:59.606Z,71.00
2017-11-30T00:48:28.005Z,70.80
2017-11-30T00:50:55.626Z,70.80
2017-11-30T00:53:23.218Z,70.70
2017-11-30T00:55:51.613Z,71.10
2017-11-30T00:58:19.226Z,71.10
2017-11-30T01:00:46.865Z,70.70
2017-11-30T01:03:14.465Z,70.60
2017-11-30T01:05:42.870Z,70.70
2017-11-30T01:08:10.479Z,70.70
2017-11-30T01:10:38.074Z,70.70
2017-11-30T01:13:05.728Z,71.10
2017-11-30T01:15:34.344Z,70.80
2017-11-30T01:18:02.020Z,70.70
2017-11-30T01:20:29.627Z,71.00
2017-11-30T01:22:57.262Z,70.80
2017-11-30T01:25:24.875Z,71.50
2017-11-30T01:27:52.527Z,70.80
2017-11-30T01:30:20.915Z,70.60
2017-11-30T01:32:48.525Z,70.60
2017-11-30T01:35:16.168Z,70.70
2017-11-30T01:37:43.771Z,71.00
2017-11-30T01:40:11.365Z,71.00
2017-11-30T01:42:39.017Z,71.00
2017-11-30T01:45:08.181Z,71.20
2017-11-30T01:47:36.603Z,71.00
2017-11-30T01:50:04.207Z,70.90
2017-11-30T01:52:31.810Z,70.90
2017-11-30T01:54:59.466Z,71.00
2017-11-30T01:57:27.843Z,70.60
2017-11-30T01:59:56.238Z,70.70
2017-11-30T02:02:23.855Z,70.60
2017-11-30T02:04:51.462Z,70.60
2017-11-30T02:07:19.081Z,70.50
2017-11-30T02:09:46.705Z,70.80
2017-11-30T02:12:14.335Z,70.70
2017-11-30T02:14:42.702Z,70.70
2017-11-30T02:17:11.122Z,70.70
2017-11-30T02:19:38.725Z,70.70
2017-11-30T02:22:06.359Z,70.80
2017-11-30T02:24:33.987Z,71.10
2017-11-30T02:27:01.585Z,70.90
2017-11-30T02:29:29.250Z,70.70
2017-11-30T02:31:56.898Z,70.70
2017-11-30T02:34:24.510Z,70.80
2017-11-30T02:36:52.909Z,70.90
2017-11-30T02:39:20.546Z,70.90
2017-11-30T02:41:48.973Z,71.00
2017-11-30T02:44:16.613Z,71.00
2017-11-30T02:46:44.282Z,70.90
2017-11-30T02:49:11.953Z,70.80
2017-11-30T02:51:39.566Z,70.50
2017-11-30T02:54:07.227Z,70.50
2017-11-30T02:56:34.848Z,70.30
2017-11-30T02:59:02.483Z,70.40
2017-11-30T03:01:30.122Z,70.20
2017-11-30T03:03:58.522Z,70.10
2017-11-30T03:06:26.167Z,70.10
2017-11-30T03:08:53.798Z,70.00
2017-11-30T03:11:21.438Z,70.10
2017-11-30T03:13:49.043Z,70.20
2017-11-30T03:16:17.470Z,70.20
2017-11-30T03:18:45.147Z,70.00
2017-11-30T03:21:12.770Z,70.10
2017-11-30T03:23:40.401Z,70.00
2017-11-30T03:26:08.013Z,70.20
2017-11-30T03:28:35.645Z,69.90
2017-11-30T03:31:03.292Z,70.00
2017-11-30T03:33:31.686Z,69.90
2017-11-30T03:35:59.294Z,69.80
2017-11-30T03:38:26.934Z,69.80
2017-11-30T03:40:54.571Z,69.70
2017-11-30T03:43:22.206Z,69.90
2017-11-30T03:45:49.834Z,69.70
2017-11-30T03:48:17.442Z,70.20
2017-11-30T03:50:45.094Z,69.50
2017-11-30T03:53:12.705Z,69.80
2017-11-30T03:55:40.315Z,69.80
2017-11-30T03:58:07.937Z,69.50
2017-11-30T04:00:35.539Z,69.70
2017-11-30T04:03:03.954Z,69.20
2017-11-30T04:05:31.547Z,69.10
2017-11-30T04:07:59.297Z,69.30
2017-11-30T04:10:26.924Z,69.30
2017-11-30T04:12:54.548Z,69.40
2017-11-30T04:15:22.199Z,69.50
2017-11-30T04:17:49.789Z,69.40
2017-11-30T04:20:18.169Z,69.90
2017-11-30T04:22:46.526Z,70.30
2017-11-30T04:25:14.534Z,70.10
2017-11-30T04:27:42.133Z,69.80
2017-11-30T04:30:09.742Z,69.80
2017-11-30T04:32:38.138Z,70.00
2017-11-30T04:35:05.736Z,69.80
2017-11-30T04:37:33.378Z,69.90
2017-11-30T04:40:00.997Z,70.00
2017-11-30T04:42:29.419Z,70.20
2017-11-30T04:44:57.031Z,70.10
2017-11-30T04:47:24.625Z,70.10
2017-11-30T04:49:52.254Z,69.50
2017-11-30T04:52:19.872Z,70.30
2017-11-30T04:54:47.499Z,70.10
2017-11-30T04:57:15.115Z,70.10
2017-11-30T04:59:42.766Z,69.90
2017-11-30T05:02:10.385Z,70.10
2017-11-30T05:04:37.979Z,70.10
2017-11-30T05:07:05.623Z,71.00
2017-11-30T05:09:33.239Z,70.10
2017-11-30T05:12:00.886Z,70.20
2017-11-30T05:14:28.498Z,70.20
2017-11-30T05:16:56.134Z,70.20
2017-11-30T05:19:24.489Z,70.30
2017-11-30T05:21:52.101Z,70.10
2017-11-30T05:24:19.729Z,70.30
2017-11-30T05:26:48.103Z,70.40
2017-11-30T05:29:15.732Z,70.20
2017-11-30T05:31:43.334Z,70.40
2017-11-30T05:34:11.742Z,70.40
2017-11-30T05:36:39.556Z,70.20
2017-11-30T05:39:07.201Z,70.40
2017-11-30T05:41:34.800Z,70.10
2017-11-30T05:44:03.207Z,70.40
2017-11-30T05:46:30.814Z,70.20
2017-11-30T05:48:59.181Z,71.20
2017-11-30T05:51:26.812Z,70.20
2017-11-30T05:53:54.409Z,70.50
2017-11-30T05:56:22.033Z,70.40
2017-11-30T05:58:49.641Z,70.40
2017-11-30T06:01:17.278Z,70.20
2017-11-30T06:03:44.874Z,70.30
2017-11-30T06:06:12.471Z,70.80
2017-11-30T06:08:40.113Z,70.70
2017-11-30T06:11:08.479Z,70.70
2017-11-30T06:13:36.871Z,70.60
2017-11-30T06:16:05.238Z,70.50
2017-11-30T06:18:33.603Z,70.60
2017-11-30T06:21:01.434Z,70.60
2017-11-30T06:23:29.032Z,70.40
2017-11-30T06:25:56.654Z,70.60
2017-11-30T06:28:24.253Z,70.20
2017-11-30T06:30:51.850Z,71.20
2017-11-30T06:33:19.476Z,70.60
2017-11-30T06:35:47.845Z,70.60
2017-11-30T06:38:15.490Z,70.60
2017-11-30T06:40:43.102Z,70.60
2017-11-30T06:43:10.752Z,70.70
2017-11-30T06:45:39.164Z,70.60
2017-11-30T06:48:06.795Z,70.50
2017-11-30T06:50:35.204Z,70.70
2017-11-30T06:53:02.878Z,70.70
2017-11-30T06:55:30.528Z,70.50
2017-11-30T06:57:58.138Z,70.60
2017-11-30T07:00:25.761Z,70.70
2017-11-30T07:02:53.391Z,70.60
2017-11-30T07:05:21.003Z,71.00
2017-11-30T07:07:48.617Z,71.10
2017-11-30T07:10:16.219Z,70.70
2017-11-30T07:12:43.838Z,70.80
2017-11-30T07:15:11.471Z,70.80
2017-11-30T07:17:39.851Z,70.90
2017-11-30T07:20:08.252Z,71.00
2017-11-30T07:22:36.635Z,71.10
2017-11-30T07:25:04.276Z,70.90
2017-11-30T07:27:32.675Z,71.00
2017-11-30T07:30:00.373Z,70.90
2017-11-30T07:32:27.983Z,70.80
2017-11-30T07:34:56.399Z,71.00
2017-11-30T07:37:24.038Z,70.80
2017-11-30T07:39:51.651Z,71.00
2017-11-30T07:42:19.323Z,71.20
2017-11-30T07:44:46.922Z,70.90
2017-11-30T07:47:14.558Z,71.40
2017-11-30T07:49:42.931Z,71.20
2017-11-30T07:52:10.554Z,71.00
2017-11-30T07:54:38.177Z,71.00
2017-11-30T07:57:05.810Z,70.90
2017-11-30T07:59:33.443Z,70.90
2017-11-30T08:02:01.041Z,71.00
2017-11-30T08:04:28.673Z,71.40
2017-11-30T08:06:56.268Z,71.00
2017-11-30T08:09:24.671Z,71.10
2017-11-30T08:11:52.271Z,70.90
2017-11-30T08:14:19.894Z,71.20
2017-11-30T08:16:47.533Z,71.10
2017-11-30T08:19:15.909Z,71.10
2017-11-30T08:21:44.313Z,71.00
2017-11-30T08:24:11.905Z,70.90
2017-11-30T08:26:39.574Z,70.80
2017-11-30T08:29:07.195Z,71.00
2017-11-30T08:31:34.869Z,71.10
2017-11-30T08:34:02.454Z,71.10
2017-11-30T08:36:30.102Z,71.20
2017-11-30T08:38:57.727Z,70.90
2017-11-30T08:41:26.152Z,70.80
2017-11-30T08:43:53.782Z,70.60
2017-11-30T08:46:21.401Z,70.60
2017-11-30T08:48:49.013Z,70.90
2017-11-30T08:51:16.642Z,70.80
2017-11-30T08:53:45.039Z,70.80
2017-11-30T08:56:12.695Z,70.60
2017-11-30T08:58:40.299Z,70.60
2017-11-30T09:01:07.932Z,70.70
2017-11-30T09:03:35.529Z,70.80
2017-11-30T09:06:03.132Z,70.80
2017-11-30T09:08:31.533Z,70.80
2017-11-30T09:10:59.153Z,70.70
2017-11-30T09:13:27.523Z,70.60
2017-11-30T09:15:55.895Z,70.50
2017-11-30T09:18:23.518Z,70.40
2017-11-30T09:20:51.110Z,70.80
2017-11-30T09:23:18.732Z,70.90
2017-11-30T09:25:46.335Z,70.80
2017-11-30T09:28:13.932Z,71.00
2017-11-30T09:30:42.326Z,71.00
2017-11-30T09:33:09.938Z,71.00
2017-11-30T09:35:39.073Z,70.70
2017-11-30T09:38:06.681Z,70.60
2017-11-30T09:40:34.335Z,70.90
2017-11-30T09:43:01.960Z,70.90
2017-11-30T09:45:29.551Z,71.10
2017-11-30T09:47:57.179Z,71.30
2017-11-30T09:50:24.885Z,71.20
2017-11-30T09:52:52.497Z,71.00
2017-11-30T09:55:20.883Z,70.80
2017-11-30T09:57:48.509Z,70.80
2017-11-30T10:00:16.134Z,70.70
2017-11-30T10:02:43.726Z,71.00
2017-11-30T10:05:11.349Z,70.90
2017-11-30T10:07:38.946Z,70.60
2017-11-30T10:10:06.613Z,70.70
2017-11-30T10:12:35.750Z,70.80
2017-11-30T10:15:03.368Z,70.70
2017-11-30T10:17:31.003Z,71.00
2017-11-30T10:19:58.600Z,71.10
2017-11-30T10:22:26.227Z,70.90
2017-11-30T10:24:53.834Z,70.90
2017-11-30T10:27:22.237Z,71.30
2017-11-30T10:29:49.870Z,71.30
2017-11-30T10:32:18.233Z,71.20
2017-11-30T10:34:46.624Z,71.10
2017-11-30T10:37:14.994Z,71.30
2017-11-30T10:39:43.397Z,71.10
2017-11-30T10:42:11.026Z,71.10
2017-11-30T10:44:38.657Z,71.20
2017-11-30T10:47:06.259Z,71.40
2017-11-30T10:49:34.633Z,72.20
2017-11-30T10:52:02.258Z,71.10
2017-11-30T10:54:29.876Z,70.80
2017-11-30T10:56:58.280Z,71.00
2017-11-30T10:59:25.880Z,71.00
2017-11-30T11:01:53.502Z,71.20
2017-11-30T11:04:21.109Z,71.40
2017-11-30T11:06:48.759Z,71.00
2017-11-30T11:09:16.370Z,71.00
2017-11-30T11:11:43.959Z,71.70
2017-11-30T11:14:11.583Z,71.10
2017-11-30T11:16:39.945Z,71.20
2017-11-30T11:19:07.577Z,71.10
2017-11-30T11:21:36.258Z,70.30
2017-11-30T11:24:03.902Z,70.70
2017-11-30T11:26:31.511Z,70.70
2017-11-30T11:28:59.874Z,71.70
2017-11-30T11:31:27.510Z,71.00
2017-11-30T11:33:55.118Z,71.00
2017-11-30T11:36:23.528Z,70.60
2017-11-30T11:38:51.115Z,70.60
2017-11-30T11:41:18.726Z,70.90
2017-11-30T11:43:47.113Z,71.70
2017-11-30T11:46:15.477Z,71.60
2017-11-30T11:48:43.909Z,71.50
2017-11-30T11:51:11.515Z,71.30
2017-11-30T11:53:39.915Z,71.60
2017-11-30T11:56:07.509Z,71.50
2017-11-30T11:58:35.110Z,70.70
2017-11-30T12:01:02.761Z,70.80
2017-11-30T12:03:30.384Z,70.60
2017-11-30T12:05:58.027Z,70.40
2017-11-30T12:08:25.659Z,70.70
2017-11-30T12:10:54.066Z,71.30
2017-11-30T12:13:21.677Z,71.20
2017-11-30T12:15:49.279Z,71.20
2017-11-30T12:18:16.906Z,71.50
2017-11-30T12:20:44.498Z,70.60
2017-11-30T12:23:12.878Z,70.60
2017-11-30T12:25:41.314Z,70.50
2017-11-30T12:28:10.454Z,70.60
2017-11-30T12:30:38.902Z,70.80
2017-11-30T12:33:06.545Z,70.70
2017-11-30T12:35:34.185Z,70.60
2017-11-30T12:38:01.809Z,70.90
2017-11-30T12:40:30.202Z,71.10
2017-11-30T12:42:57.797Z,71.00
2017-11-30T12:45:25.439Z,71.10
2017-11-30T12:47:53.041Z,71.00
2017-11-30T12:50:20.647Z,71.00
2017-11-30T12:52:48.271Z,70.90
2017-11-30T12:55:15.894Z,71.00
2017-11-30T12:57:43.561Z,71.00
2017-11-30T13:00:11.205Z,71.10
2017-11-30T13:02:38.814Z,71.00
2017-11-30T13:05:06.445Z,71.00
2017-11-30T13:07:34.064Z,70.80
2017-11-30T13:10:02.464Z,71.00
2017-11-30T13:12:30.073Z,71.00
2017-11-30T13:14:59.965Z,71.10
2017-11-30T13:17:27.765Z,70.90
2017-11-30T13:19:55.378Z,71.00
2017-11-30T13:22:23.065Z,71.00
2017-11-30T13:24:50.658Z,70.90
2017-11-30T13:27:19.017Z,71.20
2017-11-30T13:29:46.659Z,71.10
2017-11-30T13:32:14.362Z,71.30
2017-11-30T13:34:42.748Z,71.00
2017-11-30T13:37:11.116Z,71.00
2017-11-30T13:39:39.516Z,71.10
2017-11-30T13:42:07.119Z,71.10
2017-11-30T13:44:34.740Z,71.00
2017-11-30T13:47:02.365Z,70.90
2017-11-30T13:49:29.977Z,71.00
2017-11-30T13:51:57.612Z,71.30
2017-11-30T13:54:25.979Z,71.00
2017-11-30T13:56:54.336Z,71.10
2017-11-30T13:59:21.954Z,71.00
2017-11-30T14:01:49.556Z,71.10
2017-11-30T14:04:17.202Z,71.40
2017-11-30T14:06:44.823Z,71.90
2017-11-30T14:09:12.427Z,71.00
2017-11-30T14:11:40.104Z,70.90
2017-11-30T14:14:07.701Z,71.00
2017-11-30T14:16:35.322Z,70.90
2017-11-30T14:19:02.962Z,71.10
2017-11-30T14:21:30.619Z,70.80
2017-11-30T14:23:58.264Z,71.00
2017-11-30T14:26:25.909Z,71.00
2017-11-30T14:28:53.506Z,70.80
2017-11-30T14:31:21.101Z,71.00
2017-11-30T14:33:48.775Z,70.80
2017-11-30T14:36:17.137Z,71.20
2017-11-30T14:38:44.766Z,71.20
2017-11-30T14:41:12.361Z,71.30
2017-11-30T14:43:39.996Z,71.20
2017-11-30T14:46:07.596Z,71.00
2017-11-30T14:48:35.961Z,71.30
2017-11-30T14:51:05.105Z,71.20
2017-11-30T14:53:32.713Z,71.10
2017-11-30T14:56:00.356Z,70.90
2017-11-30T14:58:27.950Z,71.20
2017-11-30T15:00:56.376Z,71.30
2017-11-30T15:03:23.977Z,71.20
2017-11-30T15:05:51.577Z,71.00
2017-11-30T15:08:19.216Z,70.90
2017-11-30T15:10:47.614Z,71.00
2017-11-30T15:13:15.245Z,70.80
2017-11-30T15:15:43.641Z,71.20
2017-11-30T15:18:12.034Z,71.00
2017-11-30T15:20:39.627Z,70.90
2017-11-30T15:23:07.226Z,71.20
2017-11-30T15:25:35.626Z,71.40
2017-11-30T15:28:04.039Z,71.00
2017-11-30T15:30:32.520Z,71.00
2017-11-30T15:33:00.139Z,71.20
2017-11-30T15:35:28.527Z,71.30
2017-11-30T15:37:56.128Z,71.20
2017-11-30T15:40:23.751Z,71.30
2017-11-30T15:42:51.856Z,71.20
2017-11-30T15:45:19.534Z,71.20
2017-11-30T15:47:47.161Z,71.40
2017-11-30T15:50:14.756Z,71.10
2017-11-30T15:52:42.536Z,71.20
2017-11-30T15:55:10.140Z,71.40
2017-11-30T15:57:38.147Z,71.40
2017-11-30T16:00:06.951Z,71.40
2017-11-30T16:02:34.540Z,71.20
2017-11-30T16:05:02.929Z,71.60
2017-11-30T16:07:30.529Z,71.50
2017-11-30T16:09:58.209Z,71.30
2017-11-30T16:12:25.873Z,71.60
2017-11-30T16:14:53.501Z,71.60
2017-11-30T16:17:21.098Z,71.50
2017-11-30T16:19:48.696Z,71.60
2017-11-30T16:22:16.313Z,71.90
2017-11-30T16:24:43.944Z,71.90
2017-11-30T16:27:11.615Z,71.80
2017-11-30T16:29:39.386Z,72.00
2017-11-30T16:32:07.028Z,71.60
2017-11-30T16:34:34.636Z,71.80
2017-11-30T16:37:02.274Z,71.80
2017-11-30T16:39:29.865Z,72.00
2017-11-30T16:41:57.518Z,72.00
2017-11-30T16:44:25.126Z,72.20
2017-11-30T16:46:52.725Z,71.80
2017-11-30T16:49:20.380Z,71.90
2017-11-30T16:51:47.992Z,72.10
2017-11-30T16:54:15.611Z,72.30
2017-11-30T16:56:43.236Z,72.00
2017-11-30T16:59:10.868Z,72.20
2017-11-30T17:01:39.254Z,72.30
2017-11-30T17:04:07.133Z,72.10
2017-11-30T17:06:34.752Z,72.10
2017-11-30T17:09:02.346Z,72.20
2017-11-30T17:11:30.081Z,72.20
2017-11-30T17:13:58.187Z,72.40
2017-11-30T17:16:25.814Z,72.60
2017-11-30T17:18:53.445Z,72.60
2017-11-30T17:21:21.420Z,72.40
2017-11-30T17:23:49.401Z,72.80
2017-11-30T17:26:17.256Z,72.40
2017-11-30T17:28:47.470Z,72.60
2017-11-30T17:31:16.264Z,72.30
2017-11-30T17:33:44.132Z,72.10
2017-11-30T17:36:12.101Z,72.70
2017-11-30T17:38:39.969Z,72.60
2017-11-30T17:41:07.889Z,72.70
2017-11-30T17:43:35.697Z,73.00
2017-11-30T17:46:03.564Z,72.40
2017-11-30T17:48:31.397Z,72.30
2017-11-30T17:50:59.297Z,72.30
2017-11-30T17:53:27.174Z,72.70
2017-11-30T17:55:54.996Z,73.00
2017-11-30T17:58:22.856Z,73.00
2017-11-30T18:00:50.766Z,72.80
2017-11-30T18:03:18.638Z,72.90
2017-11-30T18:05:46.506Z,73.00
2017-11-30T18:08:14.335Z,73.20
2017-11-30T18:10:42.241Z,73.50
2017-11-30T18:13:10.061Z,73.30
2017-11-30T18:15:37.871Z,73.20
2017-11-30T18:18:05.742Z,73.00
2017-11-30T18:20:34.423Z,73.70
2017-11-30T18:23:02.249Z,72.70
2017-11-30T18:25:30.153Z,72.90
2017-11-30T18:27:58.079Z,73.20
2017-11-30T18:30:25.998Z,73.10
2017-11-30T18:32:55.390Z,73.20
2017-11-30T18:35:23.219Z,73.10
2017-11-30T18:37:51.129Z,73.50
2017-11-30T18:40:19.044Z,72.80
2017-11-30T18:42:46.670Z,73.30
2017-11-30T18:45:14.271Z,73.30
2017-11-30T18:47:41.906Z,73.60
2017-11-30T18:50:10.265Z,73.40
2017-11-30T18:52:37.899Z,73.20
2017-11-30T18:55:05.503Z,73.50
2017-11-30T18:57:33.189Z,73.30
2017-11-30T19:00:00.786Z,73.40
2017-11-30T19:02:28.384Z,73.10
2017-11-30T19:04:56.019Z,73.30
2017-11-30T19:07:23.635Z,73.40
2017-11-30T19:09:51.261Z,73.50
2017-11-30T19:12:19.110Z,73.30
2017-11-30T19:14:47.037Z,73.50
2017-11-30T19:17:14.940Z,73.40
2017-11-30T19:19:42.808Z,73.50
2017-11-30T19:22:10.679Z,73.30
2017-11-30T19:24:38.551Z,73.40
2017-11-30T19:27:06.511Z,73.30
2017-11-30T19:29:34.383Z,73.50
2017-11-30T19:32:02.246Z,73.40
2017-11-30T19:34:30.071Z,73.20
2017-11-30T19:36:57.993Z,73.40
2017-11-30T19:39:25.802Z,73.20
2017-11-30T19:41:53.716Z,73.60
2017-11-30T19:44:21.491Z,73.50
2017-11-30T19:46:49.349Z,73.20
2017-11-30T19:49:17.179Z,73.20
2017-11-30T19:51:45.082Z,73.40
2017-11-30T19:54:12.948Z,74.20
2017-11-30T19:56:40.710Z,73.40
2017-11-30T19:59:08.767Z,73.30
2017-11-30T20:01:37.369Z,73.60
2017-11-30T20:04:05.234Z,73.50
2017-11-30T20:06:33.009Z,73.50
2017-11-30T20:09:00.921Z,73.60
2017-11-30T20:11:28.826Z,73.50
2017-11-30T20:13:56.692Z,73.30
2017-11-30T20:16:24.569Z,73.30
2017-11-30T20:18:52.437Z,73.50
2017-11-30T20:21:20.401Z,73.50
2017-11-30T20:23:48.262Z,73.60
2017-11-30T20:26:16.128Z,73.30
2017-11-30T20:28:43.998Z,73.50
2017-11-30T20:31:11.629Z,73.50
2017-11-30T20:33:39.224Z,73.50
2017-11-30T20:36:06.857Z,73.50
2017-11-30T20:38:34.454Z,73.60
2017-11-30T20:41:02.072Z,73.70
2017-11-30T20:43:29.681Z,73.40
2017-11-30T20:45:58.050Z,73.20
2017-11-30T20:48:25.670Z,73.50
2017-11-30T20:50:53.269Z,73.20
2017-11-30T20:53:20.888Z,73.50
2017-11-30T20:55:48.483Z,73.40
2017-11-30T20:58:16.074Z,73.60
2017-11-30T21:00:44.463Z,73.80
2017-11-30T21:03:12.822Z,73.50
2017-11-30T21:05:41.022Z,73.40
2017-11-30T21:08:09.379Z,73.60
2017-11-30T21:10:37.026Z,73.50
2017-11-30T21:13:06.130Z,73.60
2017-11-30T21:15:34.716Z,73.70
2017-11-30T21:18:03.241Z,73.60
2017-11-30T21:20:30.842Z,73.50
2017-11-30T21:22:58.460Z,73.70
2017-11-30T21:25:26.062Z,73.60
2017-11-30T21:27:53.681Z,73.60
2017-11-30T21:30:21.334Z,73.30
2017-11-30T21:32:49.720Z,73.60
2017-11-30T21:35:17.324Z,73.50
2017-11-30T21:37:44.932Z,73.60
2017-11-30T21:40:12.974Z,73.70
2017-11-30T21:42:41.449Z,73.60
2017-11-30T21:45:09.837Z,73.60
2017-11-30T21:47:38.205Z,73.40
2017-11-30T21:50:06.154Z,73.20
2017-11-30T21:52:34.023Z,73.60
2017-11-30T21:55:02.711Z,74.50
2017-11-30T21:57:30.577Z,73.60
2017-11-30T21:59:58.443Z,73.50
2017-11-30T22:02:26.316Z,73.70
2017-11-30T22:04:54.071Z,73.80
2017-11-30T22:07:24.070Z,73.60
2017-11-30T22:09:53.928Z,73.40
2017-11-30T22:12:21.869Z,73.50
2017-11-30T22:14:49.679Z,73.50
2017-11-30T22:17:18.337Z,73.50
2017-11-30T22:19:46.198Z,73.30
2017-11-30T22:22:14.045Z,73.40
2017-11-30T22:24:41.936Z,73.50
2017-11-30T22:27:11.327Z,73.50
2017-11-30T22:29:39.192Z,73.40
2017-11-30T22:32:07.063Z,73.50
2017-11-30T22:34:35.036Z,73.10
2017-11-30T22:37:02.831Z,73.30
2017-11-30T22:39:31.475Z,73.60
2017-11-30T22:41:59.344Z,73.60
2017-11-30T22:44:27.220Z,73.60
2017-11-30T22:46:55.177Z,73.70
2017-11-30T22:49:23.053Z,73.70
2017-11-30T22:51:51.017Z,73.60
2017-11-30T22:54:18.881Z,73.60
2017-11-30T22:56:46.870Z,73.70
2017-11-30T22:59:14.724Z,73.60
2017-11-30T23:01:42.591Z,73.60
2017-11-30T23:04:10.448Z,73.70
2017-11-30T23:06:38.220Z,73.50
2017-11-30T23:09:05.848Z,73.60
2017-11-30T23:11:33.453Z,72.70
2017-11-30T23:14:01.044Z,72.60
2017-11-30T23:16:29.440Z,73.50
2017-11-30T23:18:57.042Z,73.40
2017-11-30T23:21:24.681Z,73.80
2017-11-30T23:23:52.350Z,73.80
2017-11-30T23:26:20.008Z,73.70
2017-11-30T23:28:47.605Z,73.70
2017-11-30T23:31:15.205Z,73.60
2017-11-30T23:33:42.848Z,73.20
2017-11-30T23:36:11.204Z,73.30
2017-11-30T23:38:38.839Z,73.30
2017-11-30T23:41:07.268Z,73.40
2017-11-30T23:43:34.921Z,73.50
2017-11-30T23:46:03.277Z,73.30
2017-11-30T23:48:31.661Z,73.60
2017-11-30T23:50:59.272Z,73.60
2017-11-30T23:53:26.887Z,73.70
2017-11-30T23:55:54.486Z,73.70
2017-11-30T23:58:22.105Z,73.80
